Time;durP1;ratioP1;P1;durP2;ratioP2;P2;SDS_P1;SDS_P2;PMS_P1;PMS_P2;Temp;Humidity;BMP_temperature;BMP_pressure;BME280_temperature;BME280_humidity;BME280_pressure;Samples;Min_cycle;Max_cycle;Signal;HPM_P1;HPM_P2
2022/12/03 00:00:30;;;;;;;0.00;0.00;;;6.40;99.90;;;;;;5004168;28;20042;-64
2022/12/03 00:02:56;;;;;;;0.00;0.00;;;6.50;99.90;;;;;;5003011;28;20042;-63
2022/12/03 00:05:21;;;;;;;0.00;0.00;;;6.50;99.90;;;;;;5004570;28;20056;-63
2022/12/03 00:07:47;;;;;;;0.00;0.00;;;6.60;99.90;;;;;;5006450;28;20029;-63
2022/12/03 00:10:13;;;;;;;0.00;0.00;;;6.60;99.90;;;;;;5005635;28;20042;-62
2022/12/03 00:12:38;;;;;;;0.00;0.00;;;6.50;99.90;;;;;;5007803;28;20478;-62
2022/12/03 00:15:06;;;;;;;0.00;0.00;;;6.60;99.90;;;;;;5005963;28;20038;-62
2022/12/03 00:17:31;;;;;;;0.00;0.00;;;6.50;99.90;;;;;;5006025;28;20460;-63
2022/12/03 00:19:57;;;;;;;0.00;0.00;;;6.60;99.90;;;;;;5021102;28;20026;-62
2022/12/03 00:22:23;;;;;;;0.00;0.00;;;6.60;99.90;;;;;;5005664;28;20045;-63
2022/12/03 00:24:49;;;;;;;0.00;0.00;;;6.60;99.90;;;;;;5007739;28;20053;-62
2022/12/03 00:27:14;;;;;;;0.00;0.00;;;6.60;99.90;;;;;;5015457;28;20396;-64
2022/12/03 00:29:40;;;;;;;0.00;0.00;;;6.60;99.90;;;;;;5010403;28;20069;-62
2022/12/03 00:32:05;;;;;;;0.00;0.00;;;6.50;99.90;;;;;;5008355;28;20029;-63
2022/12/03 00:34:31;;;;;;;0.00;0.00;;;6.50;99.90;;;;;;5011235;28;20034;-62
2022/12/03 00:36:57;;;;;;;0.00;0.00;;;6.60;99.90;;;;;;5011135;28;20040;-63
2022/12/03 00:39:22;;;;;;;0.00;0.00;;;6.60;99.90;;;;;;5009533;28;20026;-62
2022/12/03 00:41:48;;;;;;;0.00;0.00;;;6.60;99.90;;;;;;5009820;28;20057;-63
2022/12/03 00:44:14;;;;;;;0.00;0.00;;;6.50;99.90;;;;;;5007417;28;20500;-63
2022/12/03 00:46:39;;;;;;;0.00;0.00;;;6.50;99.90;;;;;;5010347;28;20040;-63
2022/12/03 00:49:05;;;;;;;0.00;0.00;;;6.50;99.90;;;;;;5009563;28;20051;-62
2022/12/03 00:51:31;;;;;;;0.00;0.00;;;6.40;99.90;;;;;;5009012;28;20121;-63
2022/12/03 00:53:56;;;;;;;0.00;0.00;;;6.30;99.90;;;;;;5004027;28;20040;-61
2022/12/03 00:56:22;;;;;;;0.00;0.00;;;6.40;99.90;;;;;;5007249;28;20109;-63
2022/12/03 00:58:48;;;;;;;0.00;0.00;;;6.40;99.90;;;;;;5009060;28;20092;-62
2022/12/03 01:01:13;;;;;;;;;;;6.30;99.90;;;;;;5011163;28;20412;-62
2022/12/03 01:03:39;;;;;;;0.00;0.00;;;6.30;99.90;;;;;;5007247;28;20215;-62
2022/12/03 01:06:05;;;;;;;0.00;0.00;;;6.30;99.90;;;;;;5005881;28;20049;-63
2022/12/03 01:08:30;;;;;;;0.00;0.00;;;6.40;99.90;;;;;;5006778;28;20117;-63
2022/12/03 01:10:56;;;;;;;0.00;0.00;;;6.50;99.90;;;;;;5008882;28;20414;-62
2022/12/03 01:13:22;;;;;;;0.00;0.00;;;6.40;99.90;;;;;;5009008;28;20026;-61
2022/12/03 01:15:47;;;;;;;0.00;0.00;;;6.40;99.90;;;;;;5009787;28;20058;-63
2022/12/03 01:18:13;;;;;;;0.00;0.00;;;6.50;99.90;;;;;;5009658;28;20108;-64
2022/12/03 01:20:38;;;;;;;0.00;0.00;;;6.50;99.90;;;;;;5009789;28;20029;-63
2022/12/03 01:23:04;;;;;;;0.00;0.00;;;6.50;99.90;;;;;;5008120;28;20029;-62
2022/12/03 01:25:30;;;;;;;0.00;0.00;;;6.60;99.90;;;;;;5007079;28;20480;-62
2022/12/03 01:27:56;;;;;;;0.00;0.00;;;6.70;99.90;;;;;;5008510;28;20109;-62
2022/12/03 01:30:21;;;;;;;0.00;0.00;;;6.60;99.90;;;;;;5009423;28;20033;-63
2022/12/03 01:32:47;;;;;;;0.00;0.00;;;6.60;99.90;;;;;;5006802;28;20289;-62
2022/12/03 01:35:12;;;;;;;0.00;0.00;;;6.60;99.90;;;;;;5005971;28;20225;-63
2022/12/03 01:37:38;;;;;;;0.00;0.00;;;6.70;99.90;;;;;;5003537;28;20494;-63
2022/12/03 01:40:06;;;;;;;0.00;0.00;;;6.70;99.90;;;;;;5006288;28;20030;-63
2022/12/03 01:42:39;;;;;;;0.00;0.00;;;6.60;99.90;;;;;;5017400;28;20078;-63
2022/12/03 01:45:05;;;;;;;0.00;0.00;;;6.50;99.90;;;;;;4994088;28;20038;-62
2022/12/03 01:47:34;;;;;;;0.00;0.00;;;6.60;99.90;;;;;;5012574;28;20041;-61
2022/12/03 01:50:23;;;;;;;0.00;0.00;;;6.50;99.90;;;;;;5008165;28;20530;-62
2022/12/03 01:52:48;;;;;;;0.00;0.00;;;6.50;99.90;;;;;;5007408;28;20284;-62
2022/12/03 01:55:25;;;;;;;0.00;0.00;;;6.60;99.90;;;;;;5003920;28;20351;-63
2022/12/03 01:57:57;;;;;;;0.00;0.00;;;6.70;99.90;;;;;;5005584;28;20431;-63
2022/12/03 02:00:26;;;;;;;0.00;0.00;;;6.70;99.90;;;;;;5009994;28;20076;-62
2022/12/03 02:02:58;;;;;;;0.00;0.00;;;6.70;99.90;;;;;;5008033;28;20522;-61
2022/12/03 02:05:26;;;;;;;0.00;0.00;;;6.70;99.90;;;;;;5010707;28;20503;-63
2022/12/03 02:07:52;;;;;;;0.00;0.00;;;6.60;99.90;;;;;;5012956;28;20034;-63
2022/12/03 02:10:22;;;;;;;0.00;0.00;;;6.60;99.90;;;;;;5011687;28;20041;-63
2022/12/03 02:12:58;;;;;;;0.00;0.00;;;6.60;99.90;;;;;;5010410;28;20060;-63
2022/12/03 02:15:24;;;;;;;0.00;0.00;;;6.70;99.90;;;;;;5013072;28;20042;-62
2022/12/03 02:17:50;;;;;;;0.00;0.00;;;6.60;99.90;;;;;;5011843;28;20403;-62
2022/12/03 02:20:16;;;;;;;0.00;0.00;;;6.70;99.90;;;;;;5010801;28;20026;-62
2022/12/03 02:22:47;;;;;;;0.00;0.00;;;6.60;99.90;;;;;;5013431;28;21141;-62
2022/12/03 02:25:26;;;;;;;0.00;0.00;;;6.70;99.90;;;;;;5006905;28;20061;-63
2022/12/03 02:27:53;;;;;;;0.00;0.00;;;6.70;99.90;;;;;;5003100;28;20112;-63
2022/12/03 02:30:22;;;;;;;0.00;0.00;;;6.70;99.90;;;;;;4998788;28;20026;-62
2022/12/03 02:32:49;;;;;;;0.00;0.00;;;6.70;99.90;;;;;;4998673;28;20100;-63
2022/12/03 02:35:18;;;;;;;0.00;0.00;;;6.70;99.90;;;;;;5000796;28;20488;-63
2022/12/03 02:37:46;;;;;;;0.00;0.00;;;6.60;99.90;;;;;;4997450;28;20439;-62
2022/12/03 02:40:16;;;;;;;0.00;0.00;;;6.50;99.90;;;;;;5017172;28;20061;-63
2022/12/03 02:42:44;;;;;;;0.00;0.00;;;6.50;99.90;;;;;;5016673;28;20469;-62
2022/12/03 02:45:24;;;;;;;0.00;0.00;;;6.50;99.90;;;;;;5012183;28;20104;-63
2022/12/03 02:48:04;;;;;;;0.00;0.00;;;6.50;99.90;;;;;;5010166;28;20531;-62
2022/12/03 02:50:36;;;;;;;0.00;0.00;;;6.50;99.90;;;;;;5011850;28;20488;-63
2022/12/03 02:53:05;;;;;;;0.00;0.00;;;6.40;99.90;;;;;;5000323;28;20069;-63
2022/12/03 02:55:33;;;;;;;0.00;0.00;;;6.40;99.90;;;;;;5010448;28;20049;-63
2022/12/03 02:58:01;;;;;;;0.00;0.00;;;6.40;99.90;;;;;;5011047;28;20403;-65
2022/12/03 03:00:27;;;;;;;0.00;0.00;;;6.40;99.90;;;;;;5012446;28;20080;-62
2022/12/03 03:02:52;;;;;;;0.00;0.00;;;6.50;99.90;;;;;;5012917;28;20376;-62
2022/12/03 03:05:22;;;;;;;0.00;0.00;;;6.40;99.90;;;;;;5003493;28;20049;-63
2022/12/03 03:07:49;;;;;;;0.00;0.00;;;6.40;99.90;;;;;;5011466;28;20022;-63
2022/12/03 03:10:18;;;;;;;0.00;0.00;;;6.50;99.90;;;;;;5011537;28;20072;-63
2022/12/03 03:12:43;;;;;;;0.00;0.00;;;6.50;99.90;;;;;;5009565;28;20026;-63
2022/12/03 03:15:10;;;;;;;0.00;0.00;;;6.60;99.90;;;;;;5012292;28;20037;-63
2022/12/03 03:17:36;;;;;;;0.00;0.00;;;6.60;99.90;;;;;;5011510;28;20041;-63
2022/12/03 03:20:03;;;;;;;;;;;6.60;99.90;;;;;;5011803;28;20157;-62
2022/12/03 03:22:32;;;;;;;0.00;0.00;;;6.60;99.90;;;;;;4999930;28;19909;-63
2022/12/03 03:24:58;;;;;;;0.00;0.00;;;6.70;99.90;;;;;;5011738;28;20044;-64
2022/12/03 03:27:24;;;;;;;0.00;0.00;;;6.70;99.90;;;;;;5012157;28;20030;-63
2022/12/03 03:29:50;;;;;;;0.00;0.00;;;6.70;99.90;;;;;;5011815;28;20037;-62
2022/12/03 03:32:15;;;;;;;0.00;0.00;;;6.80;99.90;;;;;;5012157;28;20155;-62
2022/12/03 03:34:41;;;;;;;0.00;0.00;;;6.70;99.90;;;;;;5012778;28;20121;-62
2022/12/03 03:37:07;;;;;;;0.00;0.00;;;6.80;99.90;;;;;;5012027;28;20030;-63
2022/12/03 03:39:32;;;;;;;0.00;0.00;;;6.70;99.90;;;;;;5006727;28;20481;-62
2022/12/03 03:41:58;;;;;;;0.00;0.00;;;6.60;99.90;;;;;;5011522;28;20026;-63
2022/12/03 03:44:24;;;;;;;0.00;0.00;;;6.60;99.90;;;;;;5007987;28;20400;-61
2022/12/03 03:46:49;;;;;;;0.00;0.00;;;6.50;99.90;;;;;;5003515;28;20411;-63
2022/12/03 03:49:15;;;;;;;0.00;0.00;;;6.40;99.90;;;;;;5000662;28;20026;-62
2022/12/03 03:51:41;;;;;;;0.00;0.00;;;6.50;99.90;;;;;;5001401;28;20026;-62
2022/12/03 03:54:07;;;;;;;0.00;0.00;;;6.40;99.90;;;;;;5006929;28;20026;-62
2022/12/03 03:56:33;;;;;;;;;;;6.40;99.90;;;;;;5009792;28;20025;-63
2022/12/03 03:58:59;;;;;;;0.00;0.00;;;6.40;99.90;;;;;;5007261;28;19976;-63
2022/12/03 04:01:25;;;;;;;0.00;0.00;;;6.30;99.90;;;;;;5010649;28;20429;-62
2022/12/03 04:03:52;;;;;;;0.00;0.00;;;6.30;99.90;;;;;;5011600;28;20033;-62
2022/12/03 04:06:18;;;;;;;0.00;0.00;;;6.40;99.90;;;;;;5011046;28;20092;-63
2022/12/03 04:08:43;;;;;;;0.00;0.00;;;6.40;99.90;;;;;;5010630;28;20504;-62
2022/12/03 04:13:53;;;;;;;0.00;0.00;;;6.50;99.90;;;;;;5002373;28;20499;-63
2022/12/03 04:16:19;;;;;;;0.00;0.00;;;6.50;99.90;;;;;;5008927;28;20049;-63
2022/12/03 04:18:45;;;;;;;0.00;0.00;;;6.50;99.90;;;;;;5009395;28;20042;-63
2022/12/03 04:23:54;;;;;;;0.00;0.00;;;6.50;99.90;;;;;;5011374;28;20047;-63
2022/12/03 04:29:04;;;;;;;0.00;0.00;;;6.50;99.90;;;;;;5009382;28;20041;-62
2022/12/03 04:36:58;;;;;;;0.00;0.00;;;6.30;99.90;;;;;;5005101;28;20036;-62
2022/12/03 04:39:23;;;;;;;0.00;0.00;;;6.50;99.90;;;;;;5003618;28;20493;-62
2022/12/03 04:41:49;;;;;;;0.00;0.00;;;6.60;99.90;;;;;;5013605;28;20029;-63
2022/12/03 04:44:36;;;;;;;0.00;0.00;;;6.70;99.90;;;;;;5010367;28;20479;-63
2022/12/03 04:47:11;;;;;;;0.00;0.00;;;6.60;99.90;;;;;;5005384;28;20037;-63
2022/12/03 04:49:42;;;;;;;0.00;0.00;;;6.70;99.90;;;;;;5009239;28;20639;-63
2022/12/03 04:52:09;;;;;;;0.00;0.00;;;6.70;99.90;;;;;;5010165;28;20098;-61
2022/12/03 04:54:35;;;;;;;0.00;0.00;;;6.60;99.90;;;;;;5000288;28;20126;-63
2022/12/03 04:57:01;;;;;;;;;;;6.70;99.90;;;;;;5007376;28;20026;-62
2022/12/03 04:59:27;;;;;;;0.00;0.00;;;6.70;99.90;;;;;;5006489;28;20385;-62
2022/12/03 05:01:54;;;;;;;0.00;0.00;;;6.70;99.90;;;;;;5007389;28;20032;-63
2022/12/03 05:04:20;;;;;;;0.00;0.00;;;6.80;99.90;;;;;;5006863;28;20133;-63
2022/12/03 05:06:45;;;;;;;0.00;0.00;;;6.80;99.90;;;;;;5002866;28;20121;-63
2022/12/03 05:09:12;;;;;;;0.00;0.00;;;6.90;99.90;;;;;;5008955;28;20062;-63
2022/12/03 05:11:38;;;;;;;;;;;6.80;99.90;;;;;;5007884;28;20036;-63
2022/12/03 05:14:03;;;;;;;0.00;0.00;;;6.70;99.90;;;;;;5007855;28;19910;-63
2022/12/03 05:16:29;;;;;;;0.00;0.00;;;6.60;99.90;;;;;;5006817;28;20064;-62
2022/12/03 05:18:55;;;;;;;0.00;0.00;;;6.60;99.90;;;;;;5003996;28;20456;-62
2022/12/03 05:21:21;;;;;;;0.00;0.00;;;6.70;99.90;;;;;;5007897;28;20038;-62
2022/12/03 05:23:46;;;;;;;0.00;0.00;;;6.70;99.90;;;;;;5009856;28;20081;-62
2022/12/03 05:26:12;;;;;;;0.00;0.00;;;6.70;99.90;;;;;;4996882;28;20030;-62
2022/12/03 05:28:38;;;;;;;0.00;0.00;;;6.70;99.90;;;;;;5000837;28;20034;-62
2022/12/03 05:31:05;;;;;;;0.00;0.00;;;6.60;99.90;;;;;;4998305;28;20031;-62
2022/12/03 05:33:31;;;;;;;0.00;0.00;;;6.60;99.90;;;;;;4994575;28;20205;-62
2022/12/03 05:35:56;;;;;;;0.00;0.00;;;6.50;99.90;;;;;;4997504;28;20125;-62
2022/12/03 05:38:22;;;;;;;0.00;0.00;;;6.70;99.90;;;;;;5000927;28;20606;-62
2022/12/03 05:40:48;;;;;;;0.00;0.00;;;6.70;99.90;;;;;;5002618;28;20022;-61
2022/12/03 05:43:14;;;;;;;0.00;0.00;;;6.60;99.90;;;;;;4995711;28;20033;-62
2022/12/03 05:45:42;;;;;;;0.00;0.00;;;6.60;99.90;;;;;;4991690;28;20038;-62
2022/12/03 05:48:13;;;;;;;0.00;0.00;;;6.50;99.90;;;;;;5000350;28;20048;-62
2022/12/03 05:50:42;;;;;;;0.00;0.00;;;6.50;99.90;;;;;;4999374;28;20038;-63
2022/12/03 05:53:07;;;;;;;0.00;0.00;;;6.50;99.90;;;;;;5001661;28;20407;-62
2022/12/03 05:55:33;;;;;;;0.00;0.00;;;6.50;99.90;;;;;;5001380;28;20031;-63
2022/12/03 05:57:59;;;;;;;0.00;0.00;;;6.40;99.90;;;;;;4995447;28;20850;-62
2022/12/03 06:00:27;;;;;;;0.00;0.00;;;6.40;99.90;;;;;;4998736;28;20488;-62
2022/12/03 06:02:53;;;;;;;0.00;0.00;;;6.50;99.90;;;;;;4993092;28;20207;-62
2022/12/03 06:05:20;;;;;;;0.00;0.00;;;6.50;99.90;;;;;;4998128;28;20022;-62
2022/12/03 06:07:47;;;;;;;0.00;0.00;;;6.50;99.90;;;;;;4995981;28;20038;-63
2022/12/03 06:10:15;;;;;;;0.00;0.00;;;6.50;99.90;;;;;;5000416;28;20042;-62
2022/12/03 06:12:41;;;;;;;0.00;0.00;;;6.40;99.90;;;;;;5001163;28;20469;-63
2022/12/03 06:15:08;;;;;;;0.00;0.00;;;6.40;99.90;;;;;;5001755;28;20038;-62
2022/12/03 06:17:33;;;;;;;0.00;0.00;;;6.40;99.90;;;;;;5001151;28;20061;-62
2022/12/03 06:19:59;;;;;;;0.00;0.00;;;6.40;99.90;;;;;;4996835;28;20485;-63
2022/12/03 06:22:25;;;;;;;0.00;0.00;;;6.40;99.90;;;;;;5002267;28;20034;-61
2022/12/03 06:24:51;;;;;;;0.00;0.00;;;6.40;99.90;;;;;;5001323;28;20029;-63
2022/12/03 06:27:17;;;;;;;0.00;0.00;;;6.50;99.90;;;;;;4999155;28;20034;-62
2022/12/03 06:29:43;;;;;;;0.00;0.00;;;6.50;99.90;;;;;;4999136;28;20384;-62
2022/12/03 06:32:09;;;;;;;0.00;0.00;;;6.50;99.90;;;;;;4994331;28;20038;-62
2022/12/03 06:34:38;;;;;;;0.00;0.00;;;6.50;99.90;;;;;;5002322;28;20054;-62
2022/12/03 06:37:04;;;;;;;0.00;0.00;;;6.40;99.90;;;;;;5004701;28;20479;-64
2022/12/03 06:39:29;;;;;;;0.00;0.00;;;6.40;99.90;;;;;;4998113;28;20033;-62
2022/12/03 06:41:55;;;;;;;0.00;0.00;;;6.40;99.90;;;;;;5010521;28;20034;-64
2022/12/03 06:44:20;;;;;;;0.00;0.00;;;6.30;99.90;;;;;;5009696;28;20025;-63
2022/12/03 06:46:46;;;;;;;0.00;0.00;;;6.30;99.90;;;;;;5010956;28;20061;-63
2022/12/03 06:49:12;;;;;;;0.00;0.00;;;6.20;99.90;;;;;;5013484;28;20387;-63
2022/12/03 06:51:38;;;;;;;;;;;6.20;99.90;;;;;;5011568;28;20034;-62
2022/12/03 06:54:04;;;;;;;0.00;0.00;;;6.10;99.90;;;;;;5011192;28;20199;-63
2022/12/03 06:56:30;;;;;;;;;;;6.10;99.90;;;;;;5007067;28;20026;-63
2022/12/03 06:58:55;;;;;;;0.00;0.00;;;6.20;99.90;;;;;;5006434;28;19913;-63
2022/12/03 07:01:21;;;;;;;0.00;0.00;;;6.30;99.90;;;;;;5010684;28;20022;-62
2022/12/03 07:03:47;;;;;;;0.00;0.00;;;6.20;99.90;;;;;;5006594;28;20030;-63
2022/12/03 07:06:13;;;;;;;0.00;0.00;;;6.10;99.90;;;;;;5010581;28;20021;-63
2022/12/03 07:08:39;;;;;;;0.00;0.00;;;6.10;99.90;;;;;;5009888;28;20069;-62
2022/12/03 07:11:29;;;;;;;;;;;6.10;99.90;;;;;;5009669;28;20037;-62
2022/12/03 07:13:50;;;;;;;0.00;0.00;;;6.10;99.90;;;;;;5012098;28;20020;-63
2022/12/03 07:16:16;;;;;;;0.00;0.00;;;6.10;99.90;;;;;;5012771;28;20442;-63
2022/12/03 07:18:42;;;;;;;0.00;0.00;;;6.10;99.90;;;;;;5012440;28;20096;-62
2022/12/03 07:21:07;;;;;;;0.00;0.00;;;6.00;99.90;;;;;;5011448;28;20110;-62
2022/12/03 07:23:33;;;;;;;0.00;0.00;;;6.10;99.90;;;;;;5011693;28;20116;-62
2022/12/03 07:25:58;;;;;;;0.00;0.00;;;6.00;99.90;;;;;;5011493;28;20563;-63
2022/12/03 07:28:24;;;;;;;0.00;0.00;;;6.10;99.90;;;;;;5011986;28;20038;-61
2022/12/03 07:30:50;;;;;;;0.00;0.00;;;6.00;99.90;;;;;;5010695;28;20122;-62
2022/12/03 07:33:15;;;;;;;0.00;0.00;;;6.10;99.90;;;;;;5012098;28;20149;-62
2022/12/03 07:35:41;;;;;;;0.00;0.00;;;6.30;99.90;;;;;;5012438;28;20108;-64
2022/12/03 07:38:07;;;;;;;0.00;0.00;;;6.20;99.90;;;;;;5010437;28;20133;-62
2022/12/03 07:40:32;;;;;;;0.00;0.00;;;6.10;99.90;;;;;;5009670;28;20025;-63
2022/12/03 07:42:58;;;;;;;0.00;0.00;;;6.20;99.90;;;;;;5008133;28;20030;-63
2022/12/03 07:45:24;;;;;;;0.00;0.00;;;6.30;99.90;;;;;;5002848;28;20025;-64
2022/12/03 07:47:49;;;;;;;0.00;0.00;;;6.30;99.90;;;;;;5010397;28;20034;-63
2022/12/03 07:50:15;;;;;;;0.00;0.00;;;6.20;99.90;;;;;;5003436;28;20492;-64
2022/12/03 07:52:41;;;;;;;0.00;0.00;;;6.30;99.90;;;;;;5008547;28;20026;-63
2022/12/03 07:55:08;;;;;;;0.00;0.00;;;6.20;99.90;;;;;;5012384;28;20037;-63
2022/12/03 07:57:34;;;;;;;0.00;0.00;;;6.10;99.90;;;;;;5008904;28;20057;-63
2022/12/03 07:59:59;;;;;;;0.00;0.00;;;6.10;99.90;;;;;;5009048;28;20184;-64
2022/12/03 08:02:25;;;;;;;0.00;0.00;;;6.10;99.90;;;;;;5009247;28;20026;-63
2022/12/03 08:04:51;;;;;;;0.00;0.00;;;6.10;99.90;;;;;;5009101;28;20480;-64
2022/12/03 08:07:16;;;;;;;0.00;0.00;;;6.10;99.90;;;;;;5010300;28;20562;-63
2022/12/03 08:09:42;;;;;;;0.00;0.00;;;6.20;99.90;;;;;;5010222;28;20108;-64
2022/12/03 08:12:38;;;;;;;0.00;0.00;;;6.20;99.90;;;;;;5002702;28;20452;-63
2022/12/03 08:15:12;;;;;;;0.00;0.00;;;6.10;99.90;;;;;;5011359;28;20033;-63
2022/12/03 08:17:39;;;;;;;0.00;0.00;;;6.20;99.90;;;;;;5011053;28;20029;-64
2022/12/03 08:20:13;;;;;;;0.00;0.00;;;6.20;99.90;;;;;;5009256;28;20030;-62
2022/12/03 08:22:40;;;;;;;0.00;0.00;;;6.20;99.90;;;;;;5008997;28;20500;-63
2022/12/03 08:25:21;;;;;;;0.00;0.00;;;6.20;99.90;;;;;;5008076;28;20034;-63
2022/12/03 08:27:46;;;;;;;0.00;0.00;;;6.20;99.90;;;;;;5001403;28;20484;-64
2022/12/03 08:30:14;;;;;;;0.00;0.00;;;6.30;99.90;;;;;;5005542;28;20129;-63
2022/12/03 08:32:40;;;;;;;0.00;0.00;;;6.30;99.90;;;;;;5004867;28;20156;-63
2022/12/03 08:35:26;;;;;;;0.00;0.00;;;6.30;99.90;;;;;;5009296;28;20101;-63
2022/12/03 08:38:10;;;;;;;0.00;0.00;;;6.30;99.90;;;;;;5003221;28;20038;-64
2022/12/03 08:40:44;;;;;;;0.00;0.00;;;6.40;99.90;;;;;;5007776;28;20492;-65
2022/12/03 08:43:24;;;;;;;0.00;0.00;;;6.50;99.90;;;;;;5006531;28;20491;-65
2022/12/03 08:45:51;;;;;;;0.00;0.00;;;6.30;99.90;;;;;;5004822;28;20384;-65
2022/12/03 08:48:24;;;;;;;0.00;0.00;;;6.30;99.90;;;;;;5003360;28;20026;-64
2022/12/03 08:50:51;;;;;;;0.00;0.00;;;6.30;99.90;;;;;;4996950;28;20391;-64
2022/12/03 08:53:45;;;;;;;0.00;0.00;;;6.20;99.90;;;;;;5002964;28;20036;-64
2022/12/03 08:56:19;;;;;;;0.00;0.00;;;6.30;99.90;;;;;;5006528;28;20041;-67
2022/12/03 08:58:50;;;;;;;0.00;0.00;;;6.30;99.90;;;;;;5005160;28;20388;-65
2022/12/03 09:01:25;;;;;;;0.00;0.00;;;6.30;99.90;;;;;;5006540;28;20053;-64
2022/12/03 09:03:55;;;;;;;0.00;0.00;;;6.30;99.90;;;;;;5000139;28;20030;-66
2022/12/03 09:06:25;;;;;;;0.00;0.00;;;6.30;99.90;;;;;;4999734;28;20037;-64
2022/12/03 09:08:50;;;;;;;0.00;0.00;;;6.30;99.90;;;;;;5007960;28;20030;-64
2022/12/03 09:11:19;;;;;;;0.00;0.00;;;6.20;99.90;;;;;;5007447;28;20092;-63
2022/12/03 09:13:45;;;;;;;0.00;0.00;;;6.30;99.90;;;;;;5010213;28;20042;-63
2022/12/03 09:16:10;;;;;;;0.00;0.00;;;6.30;99.90;;;;;;5014333;28;20092;-65
2022/12/03 09:18:36;;;;;;;0.00;0.00;;;6.20;99.90;;;;;;5012039;28;20061;-65
2022/12/03 09:21:02;;;;;;;0.00;0.00;;;6.30;99.90;;;;;;5014939;28;20018;-64
2022/12/03 09:23:27;;;;;;;0.00;0.00;;;6.30;99.90;;;;;;5015902;28;20038;-65
2022/12/03 09:25:53;;;;;;;0.00;0.00;;;6.40;99.90;;;;;;5005746;28;20034;-63
2022/12/03 09:28:19;;;;;;;0.00;0.00;;;6.50;99.90;;;;;;5010652;28;20025;-63
2022/12/03 09:30:47;;;;;;;0.00;0.00;;;6.50;99.90;;;;;;5010936;28;20030;-66
2022/12/03 09:33:13;;;;;;;0.00;0.00;;;6.50;99.90;;;;;;5011908;28;20033;-64
2022/12/03 09:35:38;;;;;;;0.00;0.00;;;6.50;99.90;;;;;;5010797;28;20388;-64
2022/12/03 09:38:07;;;;;;;0.00;0.00;;;6.60;99.90;;;;;;5011769;28;20042;-64
2022/12/03 09:40:33;;;;;;;0.00;0.00;;;6.70;99.90;;;;;;5010658;28;20026;-64
2022/12/03 09:42:59;;;;;;;0.00;0.00;;;6.70;99.90;;;;;;5007071;28;20095;-64
2022/12/03 09:45:25;;;;;;;;;;;6.70;99.90;;;;;;5011014;28;20121;-64
2022/12/03 09:47:51;;;;;;;0.00;0.00;;;6.70;99.90;;;;;;5011381;28;20407;-65
2022/12/03 09:50:22;;;;;;;0.00;0.00;;;6.70;99.90;;;;;;4998982;28;20031;-65
2022/12/03 09:52:49;;;;;;;0.00;0.00;;;6.80;99.90;;;;;;5008406;28;20118;-66
2022/12/03 09:55:22;;;;;;;0.00;0.00;;;6.80;99.90;;;;;;5005076;28;20022;-65
2022/12/03 09:57:48;;;;;;;0.00;0.00;;;6.90;99.90;;;;;;5004351;28;20038;-64
2022/12/03 10:00:22;;;;;;;0.00;0.00;;;6.90;99.90;;;;;;5006703;28;20068;-65
2022/12/03 10:02:50;;;;;;;0.00;0.00;;;6.80;99.90;;;;;;5004814;28;20032;-63
2022/12/03 10:05:20;;;;;;;0.00;0.00;;;6.80;99.90;;;;;;5008600;28;20141;-63
2022/12/03 10:07:47;;;;;;;0.00;0.00;;;6.80;99.90;;;;;;5006758;28;20117;-63
2022/12/03 10:10:19;;;;;;;0.00;0.00;;;6.80;99.90;;;;;;5009354;28;20144;-63
2022/12/03 10:12:45;;;;;;;0.00;0.00;;;6.90;99.90;;;;;;5014486;28;20387;-63
2022/12/03 10:15:14;;;;;;;0.00;0.00;;;6.90;99.90;;;;;;5015406;28;20062;-65
2022/12/03 10:17:40;;;;;;;0.00;0.00;;;7.00;99.90;;;;;;5014729;28;20124;-64
2022/12/03 10:20:06;;;;;;;;;;;7.10;99.90;;;;;;5006056;28;20030;-64
2022/12/03 10:22:36;;;;;;;0.00;0.00;;;7.00;99.90;;;;;;5002051;28;20329;-63
2022/12/03 10:25:11;;;;;;;0.00;0.00;;;7.00;99.90;;;;;;5011800;28;20018;-64
2022/12/03 10:27:38;;;;;;;0.00;0.00;;;7.00;99.90;;;;;;5006330;28;20080;-65
2022/12/03 10:30:18;;;;;;;0.00;0.00;;;7.00;99.90;;;;;;5012452;28;20041;-63
2022/12/03 10:32:46;;;;;;;0.00;0.00;;;7.00;99.90;;;;;;5012476;28;20054;-63
2022/12/03 10:35:19;;;;;;;0.00;0.00;;;7.00;99.90;;;;;;5011017;28;20044;-64
2022/12/03 10:38:04;;;;;;;0.00;0.00;;;7.00;99.90;;;;;;5011466;28;20461;-64
2022/12/03 10:40:38;;;;;;;0.00;0.00;;;7.00;99.90;;;;;;5012428;28;20456;-65
2022/12/03 10:43:19;;;;;;;0.00;0.00;;;7.00;99.90;;;;;;5010527;28;20049;-63
2022/12/03 10:45:55;;;;;;;0.00;0.00;;;7.10;99.90;;;;;;5003336;28;20025;-64
2022/12/03 10:48:29;;;;;;;0.00;0.00;;;7.20;99.90;;;;;;5011330;28;20125;-63
2022/12/03 10:51:02;;;;;;;0.00;0.00;;;7.20;99.90;;;;;;5012361;28;20095;-64
2022/12/03 10:53:31;;;;;;;0.00;0.00;;;7.20;99.90;;;;;;5011417;28;20034;-63
2022/12/03 10:56:00;;;;;;;0.00;0.00;;;7.30;99.90;;;;;;5011770;28;20041;-64
2022/12/03 10:58:35;;;;;;;0.00;0.00;;;7.20;99.90;;;;;;5009436;28;20329;-63
2022/12/03 11:01:04;;;;;;;0.00;0.00;;;7.10;99.90;;;;;;5006125;28;20038;-64
2022/12/03 11:03:34;;;;;;;0.00;0.00;;;7.10;99.90;;;;;;5010123;28;20087;-63
2022/12/03 11:06:01;;;;;;;0.00;0.00;;;7.10;99.90;;;;;;5013592;28;20033;-64
2022/12/03 11:08:34;;;;;;;0.00;0.00;;;7.20;99.90;;;;;;5021565;28;20140;-65
2022/12/03 11:11:17;;;;;;;0.00;0.00;;;7.40;99.90;;;;;;5010197;28;20404;-64
2022/12/03 11:13:47;;;;;;;0.00;0.00;;;7.40;99.90;;;;;;5011667;28;20047;-66
2022/12/03 11:16:33;;;;;;;0.00;0.00;;;7.50;99.90;;;;;;5010008;28;20037;-64
2022/12/03 11:19:01;;;;;;;0.00;0.00;;;7.70;99.90;;;;;;5006393;28;20027;-65
2022/12/03 11:21:26;;;;;;;0.00;0.00;;;7.70;99.90;;;;;;5011370;28;20076;-65
2022/12/03 11:23:52;;;;;;;0.00;0.00;;;7.70;99.90;;;;;;5010064;28;20057;-64
2022/12/03 11:26:37;;;;;;;0.00;0.00;;;7.70;99.90;;;;;;5011093;28;20472;-65
2022/12/03 11:29:11;;;;;;;0.00;0.00;;;7.70;99.90;;;;;;5010131;28;20053;-65
2022/12/03 11:31:40;;;;;;;0.00;0.00;;;7.70;99.90;;;;;;5011260;28;20108;-65
2022/12/03 11:34:21;;;;;;;0.00;0.00;;;7.70;99.90;;;;;;5010299;28;20311;-64
2022/12/03 11:37:08;;;;;;;0.00;0.00;;;7.80;99.90;;;;;;5011160;28;20515;-63
2022/12/03 11:39:49;;;;;;;0.00;0.00;;;7.70;99.90;;;;;;5011710;28;20144;-65
2022/12/03 11:42:27;;;;;;;0.00;0.00;;;7.60;99.90;;;;;;5010131;28;20030;-63
2022/12/03 11:45:02;;;;;;;0.00;0.00;;;7.60;99.90;;;;;;5009688;28;20038;-65
2022/12/03 11:47:33;;;;;;;0.00;0.00;;;7.70;99.90;;;;;;5002854;28;20025;-64
2022/12/03 11:49:59;;;;;;;0.00;0.00;;;7.60;99.90;;;;;;5010111;28;20061;-62
2022/12/03 11:52:31;;;;;;;0.00;0.00;;;7.80;99.90;;;;;;5002416;28;20074;-64
2022/12/03 11:55:23;;;;;;;0.00;0.00;;;7.80;99.90;;;;;;5010211;28;20101;-64
2022/12/03 11:57:59;;;;;;;0.00;0.00;;;7.80;99.90;;;;;;5010264;28;20160;-65
2022/12/03 12:00:25;;;;;;;0.00;0.00;;;7.80;99.90;;;;;;5011054;28;20025;-64
2022/12/03 12:02:53;;;;;;;0.00;0.00;;;7.90;99.90;;;;;;5009393;28;20825;-63
2022/12/03 12:05:25;;;;;;;0.00;0.00;;;7.90;99.90;;;;;;5008741;28;20030;-63
2022/12/03 12:07:52;;;;;;;0.00;0.00;;;7.80;99.90;;;;;;5008434;28;20045;-64
2022/12/03 12:10:36;;;;;;;;;;;7.80;99.90;;;;;;5003144;28;20067;-64
2022/12/03 12:13:01;;;;;;;0.00;0.00;;;7.90;99.90;;;;;;5010587;28;19932;-63
2022/12/03 12:15:40;;;;;;;0.00;0.00;;;7.80;99.90;;;;;;5010095;28;20029;-65
2022/12/03 12:18:33;;;;;;;0.00;0.00;;;7.80;99.90;;;;;;5009265;28;20476;-63
2022/12/03 12:21:37;;;;;;;0.00;0.00;;;7.90;99.90;;;;;;5002264;28;20065;-64
2022/12/03 12:24:30;;;;;;;0.00;0.00;;;7.80;99.90;;;;;;5002559;28;20111;-64
2022/12/03 12:26:58;;;;;;;0.00;0.00;;;7.70;99.90;;;;;;5001159;28;21010;-63
2022/12/03 12:29:24;;;;;;;0.00;0.00;;;7.80;99.90;;;;;;5005744;28;20045;-64
2022/12/03 12:31:49;;;;;;;0.00;0.00;;;7.90;99.90;;;;;;5005800;28;20139;-64
2022/12/03 12:34:15;;;;;;;0.00;0.00;;;8.00;99.90;;;;;;5005345;28;20056;-64
2022/12/03 12:36:41;;;;;;;0.00;0.00;;;8.10;99.90;;;;;;5006850;28;20096;-66
2022/12/03 12:39:12;;;;;;;0.00;0.00;;;8.10;99.90;;;;;;5007687;28;20078;-66
2022/12/03 12:41:40;;;;;;;0.00;0.00;;;8.10;99.90;;;;;;5006696;28;20030;-65
2022/12/03 12:44:13;;;;;;;0.00;0.00;;;8.10;99.90;;;;;;5002439;28;20084;-66
2022/12/03 12:46:43;;;;;;;0.00;0.00;;;8.10;99.90;;;;;;5006940;28;20029;-65
2022/12/03 12:49:13;;;;;;;0.00;0.00;;;8.20;99.90;;;;;;5007011;28;20048;-65
2022/12/03 12:51:47;;;;;;;0.00;0.00;;;8.10;99.90;;;;;;5006023;28;20500;-65
2022/12/03 12:54:14;;;;;;;0.00;0.00;;;8.20;99.90;;;;;;5004721;28;20472;-65
2022/12/03 12:56:43;;;;;;;0.00;0.00;;;8.20;99.90;;;;;;5007260;28;20105;-65
2022/12/03 12:59:14;;;;;;;0.00;0.00;;;8.20;99.90;;;;;;5004273;28;20095;-65
2022/12/03 13:01:41;;;;;;;0.00;0.00;;;8.20;99.90;;;;;;5006123;28;20349;-64
2022/12/03 13:04:22;;;;;;;0.00;0.00;;;8.20;99.90;;;;;;5004040;28;20036;-65
2022/12/03 13:06:51;;;;;;;0.00;0.00;;;8.30;99.90;;;;;;5003353;28;20030;-66
2022/12/03 13:09:24;;;;;;;0.00;0.00;;;8.40;99.90;;;;;;5002810;28;20022;-64
2022/12/03 13:11:57;;;;;;;0.00;0.00;;;8.50;99.90;;;;;;4998187;28;20122;-64
2022/12/03 13:14:25;;;;;;;0.00;0.00;;;8.40;99.90;;;;;;5002089;28;20030;-67
2022/12/03 13:16:53;;;;;;;0.00;0.00;;;8.20;99.90;;;;;;5003904;28;20030;-64
2022/12/03 13:19:32;;;;;;;0.00;0.00;;;8.30;99.90;;;;;;4998042;28;20044;-65
2022/12/03 13:22:09;;;;;;;0.00;0.00;;;8.30;99.90;;;;;;5003636;28;20096;-66